sensor_id;sensor_type;location;lat;lon;timestamp;temperature;humidity
23116;DHT22;11727;52.134;5.052;2024-01-25T00:01:52;8.00;99.90
23116;DHT22;11727;52.134;5.052;2024-01-25T00:04:19;7.90;99.90
23116;DHT22;11727;52.134;5.052;2024-01-25T00:06:45;7.90;99.90
23116;DHT22;11727;52.134;5.052;2024-01-25T00:09:10;7.90;99.90
23116;DHT22;11727;52.134;5.052;2024-01-25T00:11:36;7.80;99.90
23116;DHT22;11727;52.134;5.052;2024-01-25T00:14:01;7.80;99.90
23116;DHT22;11727;52.134;5.052;2024-01-25T00:16:28;7.80;99.90
23116;DHT22;11727;52.134;5.052;2024-01-25T00:18:54;7.80;99.90
23116;DHT22;11727;52.134;5.052;2024-01-25T00:21:19;7.70;99.90
23116;DHT22;11727;52.134;5.052;2024-01-25T00:23:45;7.70;99.90
23116;DHT22;11727;52.134;5.052;2024-01-25T00:26:11;7.70;99.90
23116;DHT22;11727;52.134;5.052;2024-01-25T00:28:36;7.60;99.90
23116;DHT22;11727;52.134;5.052;2024-01-25T00:31:02;7.60;99.90
23116;DHT22;11727;52.134;5.052;2024-01-25T00:33:28;7.60;99.90
23116;DHT22;11727;52.134;5.052;2024-01-25T00:35:54;7.50;99.90
23116;DHT22;11727;52.134;5.052;2024-01-25T00:38:19;7.50;99.90
23116;DHT22;11727;52.134;5.052;2024-01-25T00:40:45;7.50;99.90
23116;DHT22;11727;52.134;5.052;2024-01-25T00:43:11;7.40;99.90
23116;DHT22;11727;52.134;5.052;2024-01-25T00:45:37;7.40;99.90
23116;DHT22;11727;52.134;5.052;2024-01-25T00:48:03;7.40;99.90
23116;DHT22;11727;52.134;5.052;2024-01-25T00:50:29;7.30;99.90
23116;DHT22;11727;52.134;5.052;2024-01-25T00:52:55;7.30;99.90
23116;DHT22;11727;52.134;5.052;2024-01-25T00:55:21;7.30;99.90
23116;DHT22;11727;52.134;5.052;2024-01-25T00:57:47;7.30;99.90
23116;DHT22;11727;52.134;5.052;2024-01-25T01:00:13;7.20;99.90
23116;DHT22;11727;52.134;5.052;2024-01-25T01:02:47;7.20;99.90
23116;DHT22;11727;52.134;5.052;2024-01-25T01:05:14;7.20;99.90
23116;DHT22;11727;52.134;5.052;2024-01-25T01:07:40;7.20;99.90
23116;DHT22;11727;52.134;5.052;2024-01-25T01:10:10;7.20;99.90
23116;DHT22;11727;52.134;5.052;2024-01-25T01:12:36;7.10;99.90
23116;DHT22;11727;52.134;5.052;2024-01-25T01:15:01;7.10;99.90
23116;DHT22;11727;52.134;5.052;2024-01-25T01:17:28;7.00;99.90
23116;DHT22;11727;52.134;5.052;2024-01-25T01:19:53;7.00;99.90
23116;DHT22;11727;52.134;5.052;2024-01-25T01:22:19;7.00;99.90
23116;DHT22;11727;52.134;5.052;2024-01-25T01:24:44;7.00;99.90
23116;DHT22;11727;52.134;5.052;2024-01-25T01:27:10;7.00;99.90
23116;DHT22;11727;52.134;5.052;2024-01-25T01:29:36;6.90;99.90
23116;DHT22;11727;52.134;5.052;2024-01-25T01:32:01;6.90;99.90
23116;DHT22;11727;52.134;5.052;2024-01-25T01:34:28;6.90;99.90
23116;DHT22;11727;52.134;5.052;2024-01-25T01:36:53;6.80;99.90
23116;DHT22;11727;52.134;5.052;2024-01-25T01:39:19;6.80;99.90
23116;DHT22;11727;52.134;5.052;2024-01-25T01:41:48;6.80;99.90
23116;DHT22;11727;52.134;5.052;2024-01-25T01:44:14;6.80;99.90
23116;DHT22;11727;52.134;5.052;2024-01-25T01:46:40;6.70;99.90
23116;DHT22;11727;52.134;5.052;2024-01-25T01:49:08;6.60;99.90
23116;DHT22;11727;52.134;5.052;2024-01-25T01:51:35;6.60;99.90
23116;DHT22;11727;52.134;5.052;2024-01-25T01:54:01;6.60;99.90
23116;DHT22;11727;52.134;5.052;2024-01-25T01:56:28;6.50;99.90
23116;DHT22;11727;52.134;5.052;2024-01-25T01:59:08;6.50;99.90
23116;DHT22;11727;52.134;5.052;2024-01-25T02:01:34;6.40;99.90
23116;DHT22;11727;52.134;5.052;2024-01-25T02:03:59;6.40;99.90
23116;DHT22;11727;52.134;5.052;2024-01-25T02:06:25;6.30;99.90
23116;DHT22;11727;52.134;5.052;2024-01-25T02:08:51;6.30;99.90
23116;DHT22;11727;52.134;5.052;2024-01-25T02:11:19;6.20;99.90
23116;DHT22;11727;52.134;5.052;2024-01-25T02:13:44;6.10;99.90
23116;DHT22;11727;52.134;5.052;2024-01-25T02:16:10;6.10;99.90
23116;DHT22;11727;52.134;5.052;2024-01-25T02:18:36;6.10;99.90
23116;DHT22;11727;52.134;5.052;2024-01-25T02:21:01;6.10;99.90
23116;DHT22;11727;52.134;5.052;2024-01-25T02:23:27;6.00;99.90
23116;DHT22;11727;52.134;5.052;2024-01-25T02:25:53;6.00;99.90
23116;DHT22;11727;52.134;5.052;2024-01-25T02:28:18;5.90;99.90
23116;DHT22;11727;52.134;5.052;2024-01-25T02:30:44;5.90;99.90
23116;DHT22;11727;52.134;5.052;2024-01-25T02:33:10;5.90;99.90
23116;DHT22;11727;52.134;5.052;2024-01-25T02:35:36;5.90;99.90
23116;DHT22;11727;52.134;5.052;2024-01-25T02:38:02;5.80;99.90
23116;DHT22;11727;52.134;5.052;2024-01-25T02:40:27;5.80;99.90
23116;DHT22;11727;52.134;5.052;2024-01-25T02:42:53;5.80;99.90
23116;DHT22;11727;52.134;5.052;2024-01-25T02:45:18;5.80;99.90
23116;DHT22;11727;52.134;5.052;2024-01-25T02:47:44;5.70;99.90
23116;DHT22;11727;52.134;5.052;2024-01-25T02:50:10;5.70;99.90
23116;DHT22;11727;52.134;5.052;2024-01-25T02:52:35;5.70;99.90
23116;DHT22;11727;52.134;5.052;2024-01-25T02:55:01;5.60;99.90
23116;DHT22;11727;52.134;5.052;2024-01-25T02:57:26;5.60;99.90
23116;DHT22;11727;52.134;5.052;2024-01-25T02:59:52;5.60;99.90
23116;DHT22;11727;52.134;5.052;2024-01-25T03:02:18;5.50;99.90
23116;DHT22;11727;52.134;5.052;2024-01-25T03:04:46;5.50;99.90
23116;DHT22;11727;52.134;5.052;2024-01-25T03:07:12;5.50;99.90
23116;DHT22;11727;52.134;5.052;2024-01-25T03:09:37;5.40;99.90
23116;DHT22;11727;52.134;5.052;2024-01-25T03:12:04;5.40;99.90
23116;DHT22;11727;52.134;5.052;2024-01-25T03:14:30;5.40;99.90
23116;DHT22;11727;52.134;5.052;2024-01-25T03:16:55;5.30;99.90
23116;DHT22;11727;52.134;5.052;2024-01-25T03:19:24;5.30;99.90
23116;DHT22;11727;52.134;5.052;2024-01-25T03:21:51;5.30;99.90
23116;DHT22;11727;52.134;5.052;2024-01-25T03:24:16;5.20;99.90
23116;DHT22;11727;52.134;5.052;2024-01-25T03:26:42;5.20;99.90
23116;DHT22;11727;52.134;5.052;2024-01-25T03:29:08;5.20;99.90
23116;DHT22;11727;52.134;5.052;2024-01-25T03:31:33;5.10;99.90
23116;DHT22;11727;52.134;5.052;2024-01-25T03:33:59;5.00;99.90
23116;DHT22;11727;52.134;5.052;2024-01-25T03:36:25;5.00;99.90
23116;DHT22;11727;52.134;5.052;2024-01-25T03:38:51;4.90;99.90
23116;DHT22;11727;52.134;5.052;2024-01-25T03:41:16;4.90;99.90
23116;DHT22;11727;52.134;5.052;2024-01-25T03:43:42;4.80;99.90
23116;DHT22;11727;52.134;5.052;2024-01-25T03:46:07;4.90;99.90
23116;DHT22;11727;52.134;5.052;2024-01-25T03:48:33;4.80;99.90
23116;DHT22;11727;52.134;5.052;2024-01-25T03:50:58;4.80;99.90
23116;DHT22;11727;52.134;5.052;2024-01-25T03:53:24;4.80;99.90
23116;DHT22;11727;52.134;5.052;2024-01-25T03:55:50;4.80;99.90
23116;DHT22;11727;52.134;5.052;2024-01-25T03:58:17;4.80;99.90
23116;DHT22;11727;52.134;5.052;2024-01-25T04:00:43;4.80;99.90
23116;DHT22;11727;52.134;5.052;2024-01-25T04:03:10;4.80;99.90
23116;DHT22;11727;52.134;5.052;2024-01-25T04:05:35;4.70;99.90
23116;DHT22;11727;52.134;5.052;2024-01-25T04:08:01;4.70;99.90
23116;DHT22;11727;52.134;5.052;2024-01-25T04:10:27;4.70;99.90
23116;DHT22;11727;52.134;5.052;2024-01-25T04:12:52;4.70;99.90
23116;DHT22;11727;52.134;5.052;2024-01-25T04:15:18;4.70;99.90
23116;DHT22;11727;52.134;5.052;2024-01-25T04:17:44;4.70;99.90
23116;DHT22;11727;52.134;5.052;2024-01-25T04:20:10;4.60;99.90
23116;DHT22;11727;52.134;5.052;2024-01-25T04:22:36;4.60;99.90
23116;DHT22;11727;52.134;5.052;2024-01-25T04:25:02;4.50;99.90
23116;DHT22;11727;52.134;5.052;2024-01-25T04:27:28;4.50;99.90
23116;DHT22;11727;52.134;5.052;2024-01-25T04:29:53;4.40;99.90
23116;DHT22;11727;52.134;5.052;2024-01-25T04:32:19;4.30;99.90
23116;DHT22;11727;52.134;5.052;2024-01-25T04:34:45;4.30;99.90
23116;DHT22;11727;52.134;5.052;2024-01-25T04:37:13;4.30;99.90
23116;DHT22;11727;52.134;5.052;2024-01-25T04:39:39;4.20;99.90
23116;DHT22;11727;52.134;5.052;2024-01-25T04:42:04;4.20;99.90
23116;DHT22;11727;52.134;5.052;2024-01-25T04:44:30;4.20;99.90
23116;DHT22;11727;52.134;5.052;2024-01-25T04:46:56;4.10;99.90
23116;DHT22;11727;52.134;5.052;2024-01-25T04:49:22;4.10;99.90
23116;DHT22;11727;52.134;5.052;2024-01-25T04:51:47;4.10;99.90
23116;DHT22;11727;52.134;5.052;2024-01-25T04:54:13;4.10;99.90
23116;DHT22;11727;52.134;5.052;2024-01-25T04:56:44;4.10;99.90
23116;DHT22;11727;52.134;5.052;2024-01-25T04:59:10;4.10;99.90
23116;DHT22;11727;52.134;5.052;2024-01-25T05:01:36;4.10;99.90
23116;DHT22;11727;52.134;5.052;2024-01-25T05:04:01;4.10;99.90
23116;DHT22;11727;52.134;5.052;2024-01-25T05:06:27;4.10;99.90
23116;DHT22;11727;52.134;5.052;2024-01-25T05:08:53;4.00;99.90
23116;DHT22;11727;52.134;5.052;2024-01-25T05:11:18;4.10;99.90
23116;DHT22;11727;52.134;5.052;2024-01-25T05:13:44;4.10;99.90
23116;DHT22;11727;52.134;5.052;2024-01-25T05:16:10;4.10;99.90
23116;DHT22;11727;52.134;5.052;2024-01-25T05:18:36;4.10;99.90
23116;DHT22;11727;52.134;5.052;2024-01-25T05:21:02;4.10;99.90
23116;DHT22;11727;52.134;5.052;2024-01-25T05:23:27;4.10;99.90
23116;DHT22;11727;52.134;5.052;2024-01-25T05:25:53;4.20;99.90
23116;DHT22;11727;52.134;5.052;2024-01-25T05:28:19;4.20;99.90
23116;DHT22;11727;52.134;5.052;2024-01-25T05:30:44;4.20;99.90
23116;DHT22;11727;52.134;5.052;2024-01-25T05:33:10;4.20;99.90
23116;DHT22;11727;52.134;5.052;2024-01-25T05:35:36;4.30;99.90
23116;DHT22;11727;52.134;5.052;2024-01-25T05:38:01;4.30;99.90
23116;DHT22;11727;52.134;5.052;2024-01-25T05:40:27;4.30;99.90
23116;DHT22;11727;52.134;5.052;2024-01-25T05:42:53;4.30;99.90
23116;DHT22;11727;52.134;5.052;2024-01-25T05:45:18;4.30;99.90
23116;DHT22;11727;52.134;5.052;2024-01-25T05:47:46;4.30;99.90
23116;DHT22;11727;52.134;5.052;2024-01-25T05:50:12;4.30;99.90
23116;DHT22;11727;52.134;5.052;2024-01-25T05:52:37;4.20;99.90
23116;DHT22;11727;52.134;5.052;2024-01-25T05:55:06;4.20;99.90
23116;DHT22;11727;52.134;5.052;2024-01-25T05:57:34;4.30;99.90
23116;DHT22;11727;52.134;5.052;2024-01-25T06:00:00;4.30;99.90
23116;DHT22;11727;52.134;5.052;2024-01-25T06:02:25;4.30;99.90
23116;DHT22;11727;52.134;5.052;2024-01-25T06:04:51;4.30;99.90
23116;DHT22;11727;52.134;5.052;2024-01-25T06:07:16;4.30;99.90
23116;DHT22;11727;52.134;5.052;2024-01-25T06:09:42;4.20;99.90
23116;DHT22;11727;52.134;5.052;2024-01-25T06:12:08;4.20;99.90
23116;DHT22;11727;52.134;5.052;2024-01-25T06:14:33;4.20;99.90
23116;DHT22;11727;52.134;5.052;2024-01-25T06:16:59;4.20;99.90
23116;DHT22;11727;52.134;5.052;2024-01-25T06:19:24;4.20;99.90
23116;DHT22;11727;52.134;5.052;2024-01-25T06:21:50;4.20;99.90
23116;DHT22;11727;52.134;5.052;2024-01-25T06:24:16;4.20;99.90
23116;DHT22;11727;52.134;5.052;2024-01-25T06:26:41;4.10;99.90
23116;DHT22;11727;52.134;5.052;2024-01-25T06:29:07;4.10;99.90
23116;DHT22;11727;52.134;5.052;2024-01-25T06:31:32;4.10;99.90
23116;DHT22;11727;52.134;5.052;2024-01-25T06:33:58;4.20;99.90
23116;DHT22;11727;52.134;5.052;2024-01-25T06:36:24;4.20;99.90
23116;DHT22;11727;52.134;5.052;2024-01-25T06:38:49;4.20;99.90
23116;DHT22;11727;52.134;5.052;2024-01-25T06:41:15;4.20;99.90
23116;DHT22;11727;52.134;5.052;2024-01-25T06:43:41;4.20;99.90
23116;DHT22;11727;52.134;5.052;2024-01-25T06:46:07;4.20;99.90
23116;DHT22;11727;52.134;5.052;2024-01-25T06:48:33;4.20;99.90
23116;DHT22;11727;52.134;5.052;2024-01-25T06:50:59;4.20;99.90
23116;DHT22;11727;52.134;5.052;2024-01-25T06:53:26;4.20;99.90
23116;DHT22;11727;52.134;5.052;2024-01-25T06:55:51;4.20;99.90
23116;DHT22;11727;52.134;5.052;2024-01-25T06:58:17;4.20;99.90
23116;DHT22;11727;52.134;5.052;2024-01-25T07:00:43;4.20;99.90
23116;DHT22;11727;52.134;5.052;2024-01-25T07:03:10;4.20;99.90
23116;DHT22;11727;52.134;5.052;2024-01-25T07:05:36;4.20;99.90
23116;DHT22;11727;52.134;5.052;2024-01-25T07:08:02;4.20;99.90
23116;DHT22;11727;52.134;5.052;2024-01-25T07:10:28;4.20;99.90
23116;DHT22;11727;52.134;5.052;2024-01-25T07:12:54;4.20;99.90
23116;DHT22;11727;52.134;5.052;2024-01-25T07:15:20;4.20;99.90
23116;DHT22;11727;52.134;5.052;2024-01-25T07:17:45;4.30;99.90
23116;DHT22;11727;52.134;5.052;2024-01-25T07:20:12;4.30;99.90
23116;DHT22;11727;52.134;5.052;2024-01-25T07:22:37;4.30;99.90
23116;DHT22;11727;52.134;5.052;2024-01-25T07:25:03;4.30;99.90
23116;DHT22;11727;52.134;5.052;2024-01-25T07:27:29;4.40;99.90
23116;DHT22;11727;52.134;5.052;2024-01-25T07:29:55;4.30;99.90
23116;DHT22;11727;52.134;5.052;2024-01-25T07:32:20;4.40;99.90
23116;DHT22;11727;52.134;5.052;2024-01-25T07:34:46;4.30;99.90
23116;DHT22;11727;52.134;5.052;2024-01-25T07:37:13;4.30;99.90
23116;DHT22;11727;52.134;5.052;2024-01-25T07:39:38;4.30;99.90
23116;DHT22;11727;52.134;5.052;2024-01-25T07:42:04;4.40;99.90
23116;DHT22;11727;52.134;5.052;2024-01-25T07:44:30;4.40;99.90
23116;DHT22;11727;52.134;5.052;2024-01-25T07:46:55;4.30;99.90
23116;DHT22;11727;52.134;5.052;2024-01-25T07:49:21;4.30;99.90
23116;DHT22;11727;52.134;5.052;2024-01-25T07:51:47;4.30;99.90
23116;DHT22;11727;52.134;5.052;2024-01-25T07:54:12;4.40;99.90
23116;DHT22;11727;52.134;5.052;2024-01-25T07:56:38;4.40;99.90
23116;DHT22;11727;52.134;5.052;2024-01-25T07:59:04;4.40;99.90
23116;DHT22;11727;52.134;5.052;2024-01-25T08:01:30;4.40;99.90
23116;DHT22;11727;52.134;5.052;2024-01-25T08:03:55;4.40;99.90
23116;DHT22;11727;52.134;5.052;2024-01-25T08:06:21;4.40;99.90
23116;DHT22;11727;52.134;5.052;2024-01-25T08:08:48;4.50;99.90
23116;DHT22;11727;52.134;5.052;2024-01-25T08:11:13;4.50;99.90
23116;DHT22;11727;52.134;5.052;2024-01-25T08:13:43;4.50;99.90
23116;DHT22;11727;52.134;5.052;2024-01-25T08:16:09;4.50;99.90
23116;DHT22;11727;52.134;5.052;2024-01-25T08:18:36;4.60;99.90
23116;DHT22;11727;52.134;5.052;2024-01-25T08:21:02;4.60;99.90
23116;DHT22;11727;52.134;5.052;2024-01-25T08:23:27;4.60;99.90
23116;DHT22;11727;52.134;5.052;2024-01-25T08:25:53;4.60;99.90
23116;DHT22;11727;52.134;5.052;2024-01-25T08:28:18;4.70;99.90
23116;DHT22;11727;52.134;5.052;2024-01-25T08:30:45;4.70;99.90
23116;DHT22;11727;52.134;5.052;2024-01-25T08:33:11;4.70;99.90
23116;DHT22;11727;52.134;5.052;2024-01-25T08:35:36;4.80;99.90
23116;DHT22;11727;52.134;5.052;2024-01-25T08:38:02;4.80;99.90
23116;DHT22;11727;52.134;5.052;2024-01-25T08:40:28;4.90;99.90
23116;DHT22;11727;52.134;5.052;2024-01-25T08:42:54;4.90;99.90
23116;DHT22;11727;52.134;5.052;2024-01-25T08:45:19;5.00;99.90
23116;DHT22;11727;52.134;5.052;2024-01-25T08:47:45;5.00;99.90
23116;DHT22;11727;52.134;5.052;2024-01-25T08:50:12;5.10;99.90
23116;DHT22;11727;52.134;5.052;2024-01-25T08:52:38;5.10;99.90
23116;DHT22;11727;52.134;5.052;2024-01-25T08:55:06;5.20;99.90
23116;DHT22;11727;52.134;5.052;2024-01-25T08:57:32;5.20;99.90
23116;DHT22;11727;52.134;5.052;2024-01-25T08:59:58;5.30;99.90
23116;DHT22;11727;52.134;5.052;2024-01-25T09:02:24;5.30;99.90
23116;DHT22;11727;52.134;5.052;2024-01-25T09:04:53;5.40;99.90
23116;DHT22;11727;52.134;5.052;2024-01-25T09:07:22;5.50;99.90
23116;DHT22;11727;52.134;5.052;2024-01-25T09:09:48;5.60;99.90
23116;DHT22;11727;52.134;5.052;2024-01-25T09:12:14;5.70;99.90
23116;DHT22;11727;52.134;5.052;2024-01-25T09:14:40;5.80;99.90
23116;DHT22;11727;52.134;5.052;2024-01-25T09:17:05;5.80;99.90
23116;DHT22;11727;52.134;5.052;2024-01-25T09:19:31;5.90;99.90
23116;DHT22;11727;52.134;5.052;2024-01-25T09:21:57;5.90;99.90
23116;DHT22;11727;52.134;5.052;2024-01-25T09:24:26;5.90;99.90
23116;DHT22;11727;52.134;5.052;2024-01-25T09:26:52;5.90;99.90
23116;DHT22;11727;52.134;5.052;2024-01-25T09:29:17;5.90;99.90
23116;DHT22;11727;52.134;5.052;2024-01-25T09:31:43;6.00;99.90
23116;DHT22;11727;52.134;5.052;2024-01-25T09:34:08;6.00;99.90
23116;DHT22;11727;52.134;5.052;2024-01-25T09:36:34;6.10;99.90
23116;DHT22;11727;52.134;5.052;2024-01-25T09:39:00;6.10;99.90
23116;DHT22;11727;52.134;5.052;2024-01-25T09:41:25;6.20;99.90
23116;DHT22;11727;52.134;5.052;2024-01-25T09:43:52;6.20;99.90
23116;DHT22;11727;52.134;5.052;2024-01-25T09:46:18;6.30;99.90
23116;DHT22;11727;52.134;5.052;2024-01-25T09:48:44;6.30;99.90
23116;DHT22;11727;52.134;5.052;2024-01-25T09:51:11;6.40;99.90
23116;DHT22;11727;52.134;5.052;2024-01-25T09:53:39;6.50;99.90
23116;DHT22;11727;52.134;5.052;2024-01-25T09:56:09;6.50;99.90
23116;DHT22;11727;52.134;5.052;2024-01-25T09:58:43;6.60;99.90
23116;DHT22;11727;52.134;5.052;2024-01-25T10:01:12;6.60;99.90
23116;DHT22;11727;52.134;5.052;2024-01-25T10:03:41;6.70;99.90
23116;DHT22;11727;52.134;5.052;2024-01-25T10:06:07;6.70;99.90
23116;DHT22;11727;52.134;5.052;2024-01-25T10:08:34;6.80;99.90
23116;DHT22;11727;52.134;5.052;2024-01-25T10:11:00;6.90;99.90
23116;DHT22;11727;52.134;5.052;2024-01-25T10:13:26;7.00;99.90
23116;DHT22;11727;52.134;5.052;2024-01-25T10:15:53;7.00;99.90
23116;DHT22;11727;52.134;5.052;2024-01-25T10:18:21;7.10;99.90
23116;DHT22;11727;52.134;5.052;2024-01-25T10:20:47;7.20;99.90
23116;DHT22;11727;52.134;5.052;2024-01-25T10:23:13;7.20;99.90
23116;DHT22;11727;52.134;5.052;2024-01-25T10:25:39;7.30;99.90
23116;DHT22;11727;52.134;5.052;2024-01-25T10:28:05;7.30;99.90
23116;DHT22;11727;52.134;5.052;2024-01-25T10:30:35;7.30;99.90
23116;DHT22;11727;52.134;5.052;2024-01-25T10:33:02;7.30;99.90
23116;DHT22;11727;52.134;5.052;2024-01-25T10:35:31;7.30;99.90
23116;DHT22;11727;52.134;5.052;2024-01-25T10:37:57;7.30;99.90
23116;DHT22;11727;52.134;5.052;2024-01-25T10:40:22;7.30;99.90
23116;DHT22;11727;52.134;5.052;2024-01-25T10:42:49;7.40;99.90
23116;DHT22;11727;52.134;5.052;2024-01-25T10:45:14;7.40;99.90
23116;DHT22;11727;52.134;5.052;2024-01-25T10:47:40;7.40;99.90
23116;DHT22;11727;52.134;5.052;2024-01-25T10:50:10;7.50;99.90
23116;DHT22;11727;52.134;5.052;2024-01-25T10:52:37;7.50;99.90
23116;DHT22;11727;52.134;5.052;2024-01-25T10:55:04;7.50;99.90
23116;DHT22;11727;52.134;5.052;2024-01-25T10:57:38;7.50;99.90
23116;DHT22;11727;52.134;5.052;2024-01-25T11:00:11;7.50;99.90
23116;DHT22;11727;52.134;5.052;2024-01-25T11:02:38;7.50;99.90
23116;DHT22;11727;52.134;5.052;2024-01-25T11:05:16;7.60;99.90
23116;DHT22;11727;52.134;5.052;2024-01-25T11:07:50;7.60;99.90
23116;DHT22;11727;52.134;5.052;2024-01-25T11:10:25;7.60;99.90
23116;DHT22;11727;52.134;5.052;2024-01-25T11:13:01;7.60;99.90
23116;DHT22;11727;52.134;5.052;2024-01-25T11:15:33;7.60;99.90
23116;DHT22;11727;52.134;5.052;2024-01-25T11:18:03;7.70;99.90
23116;DHT22;11727;52.134;5.052;2024-01-25T11:20:33;7.70;99.90
23116;DHT22;11727;52.134;5.052;2024-01-25T11:23:03;7.70;99.90
23116;DHT22;11727;52.134;5.052;2024-01-25T11:25:31;7.80;99.90
23116;DHT22;11727;52.134;5.052;2024-01-25T11:27:57;7.80;99.90
23116;DHT22;11727;52.134;5.052;2024-01-25T11:30:23;7.90;99.90
23116;DHT22;11727;52.134;5.052;2024-01-25T11:32:49;7.90;99.90
23116;DHT22;11727;52.134;5.052;2024-01-25T11:35:15;7.90;99.90
23116;DHT22;11727;52.134;5.052;2024-01-25T11:37:48;8.00;99.90
23116;DHT22;11727;52.134;5.052;2024-01-25T11:40:15;8.00;99.90
23116;DHT22;11727;52.134;5.052;2024-01-25T11:42:46;8.10;99.90
23116;DHT22;11727;52.134;5.052;2024-01-25T11:45:13;8.10;99.90
23116;DHT22;11727;52.134;5.052;2024-01-25T11:47:40;8.10;99.90
23116;DHT22;11727;52.134;5.052;2024-01-25T11:50:07;8.20;99.90
23116;DHT22;11727;52.134;5.052;2024-01-25T11:52:33;8.20;99.90
23116;DHT22;11727;52.134;5.052;2024-01-25T11:55:03;8.20;99.90
23116;DHT22;11727;52.134;5.052;2024-01-25T11:57:30;8.20;99.90
23116;DHT22;11727;52.134;5.052;2024-01-25T11:59:57;8.30;99.90
23116;DHT22;11727;52.134;5.052;2024-01-25T12:02:23;8.30;99.90
23116;DHT22;11727;52.134;5.052;2024-01-25T12:04:50;8.30;99.90
23116;DHT22;11727;52.134;5.052;2024-01-25T12:07:15;8.30;99.90
23116;DHT22;11727;52.134;5.052;2024-01-25T12:09:41;8.30;99.90
23116;DHT22;11727;52.134;5.052;2024-01-25T12:12:09;8.30;99.90
23116;DHT22;11727;52.134;5.052;2024-01-25T12:14:34;8.30;99.90
23116;DHT22;11727;52.134;5.052;2024-01-25T12:17:00;8.30;99.90
23116;DHT22;11727;52.134;5.052;2024-01-25T12:19:28;8.20;99.90
23116;DHT22;11727;52.134;5.052;2024-01-25T12:21:55;8.20;99.90
23116;DHT22;11727;52.134;5.052;2024-01-25T12:24:21;8.30;99.90
23116;DHT22;11727;52.134;5.052;2024-01-25T12:26:47;8.30;99.90
23116;DHT22;11727;52.134;5.052;2024-01-25T12:29:12;8.30;99.90
23116;DHT22;11727;52.134;5.052;2024-01-25T12:31:38;8.40;99.90
23116;DHT22;11727;52.134;5.052;2024-01-25T12:34:13;8.40;99.90
23116;DHT22;11727;52.134;5.052;2024-01-25T12:36:40;8.50;99.90
23116;DHT22;11727;52.134;5.052;2024-01-25T12:39:05;8.50;99.90
23116;DHT22;11727;52.134;5.052;2024-01-25T12:41:32;8.50;99.90
23116;DHT22;11727;52.134;5.052;2024-01-25T12:43:57;8.60;99.90
23116;DHT22;11727;52.134;5.052;2024-01-25T12:46:23;8.60;99.90
23116;DHT22;11727;52.134;5.052;2024-01-25T12:48:49;8.70;99.90
23116;DHT22;11727;52.134;5.052;2024-01-25T12:51:15;8.70;99.90
23116;DHT22;11727;52.134;5.052;2024-01-25T12:53:40;8.70;99.90
23116;DHT22;11727;52.134;5.052;2024-01-25T12:56:06;8.70;99.90
23116;DHT22;11727;52.134;5.052;2024-01-25T12:58:32;8.70;99.90
23116;DHT22;11727;52.134;5.052;2024-01-25T13:00:57;8.70;99.90
23116;DHT22;11727;52.134;5.052;2024-01-25T13:03:23;8.70;99.90
23116;DHT22;11727;52.134;5.052;2024-01-25T13:05:48;8.70;99.90
23116;DHT22;11727;52.134;5.052;2024-01-25T13:08:14;8.70;99.90
23116;DHT22;11727;52.134;5.052;2024-01-25T13:10:40;8.70;99.90
23116;DHT22;11727;52.134;5.052;2024-01-25T13:13:05;8.70;99.90
23116;DHT22;11727;52.134;5.052;2024-01-25T13:15:31;8.70;99.90
23116;DHT22;11727;52.134;5.052;2024-01-25T13:17:57;8.80;99.90
23116;DHT22;11727;52.134;5.052;2024-01-25T13:20:23;8.70;99.90
23116;DHT22;11727;52.134;5.052;2024-01-25T13:22:48;8.70;99.90
23116;DHT22;11727;52.134;5.052;2024-01-25T13:25:14;8.70;99.90
23116;DHT22;11727;52.134;5.052;2024-01-25T13:27:40;8.70;99.90
23116;DHT22;11727;52.134;5.052;2024-01-25T13:30:06;8.70;99.90
23116;DHT22;11727;52.134;5.052;2024-01-25T13:32:32;8.70;99.90
23116;DHT22;11727;52.134;5.052;2024-01-25T13:34:57;8.70;99.90
23116;DHT22;11727;52.134;5.052;2024-01-25T13:37:23;8.70;99.90
23116;DHT22;11727;52.134;5.052;2024-01-25T13:39:48;8.70;99.90
23116;DHT22;11727;52.134;5.052;2024-01-25T13:42:14;8.70;99.90
23116;DHT22;11727;52.134;5.052;2024-01-25T13:44:39;8.70;99.90
23116;DHT22;11727;52.134;5.052;2024-01-25T13:47:05;8.70;99.90
23116;DHT22;11727;52.134;5.052;2024-01-25T13:49:31;8.70;99.90
23116;DHT22;11727;52.134;5.052;2024-01-25T13:52:00;8.70;99.90
23116;DHT22;11727;52.134;5.052;2024-01-25T13:54:26;8.70;99.90
23116;DHT22;11727;52.134;5.052;2024-01-25T13:56:51;8.70;99.90
23116;DHT22;11727;52.134;5.052;2024-01-25T13:59:17;8.70;99.90
23116;DHT22;11727;52.134;5.052;2024-01-25T14:01:43;8.70;99.90
23116;DHT22;11727;52.134;5.052;2024-01-25T14:04:08;8.70;99.90
23116;DHT22;11727;52.134;5.052;2024-01-25T14:06:34;8.70;99.90
23116;DHT22;11727;52.134;5.052;2024-01-25T14:09:00;8.80;99.90
23116;DHT22;11727;52.134;5.052;2024-01-25T14:11:25;8.80;99.90
23116;DHT22;11727;52.134;5.052;2024-01-25T14:13:51;8.80;99.90
23116;DHT22;11727;52.134;5.052;2024-01-25T14:16:17;8.80;99.90
23116;DHT22;11727;52.134;5.052;2024-01-25T14:18:43;8.80;99.90
23116;DHT22;11727;52.134;5.052;2024-01-25T14:21:10;8.90;99.90
23116;DHT22;11727;52.134;5.052;2024-01-25T14:23:35;8.90;99.90
23116;DHT22;11727;52.134;5.052;2024-01-25T14:26:01;8.90;99.90
23116;DHT22;11727;52.134;5.052;2024-01-25T14:28:26;8.90;99.90
23116;DHT22;11727;52.134;5.052;2024-01-25T14:30:52;8.90;99.90
23116;DHT22;11727;52.134;5.052;2024-01-25T14:33:18;8.90;99.90
23116;DHT22;11727;52.134;5.052;2024-01-25T14:35:43;8.90;99.90
23116;DHT22;11727;52.134;5.052;2024-01-25T14:38:09;8.90;99.90
23116;DHT22;11727;52.134;5.052;2024-01-25T14:40:35;8.90;99.90
23116;DHT22;11727;52.134;5.052;2024-01-25T14:43:01;8.90;99.90
23116;DHT22;11727;52.134;5.052;2024-01-25T14:45:27;8.90;99.90
23116;DHT22;11727;52.134;5.052;2024-01-25T14:47:55;8.90;99.90
23116;DHT22;11727;52.134;5.052;2024-01-25T14:50:21;8.80;99.90
23116;DHT22;11727;52.134;5.052;2024-01-25T14:52:46;8.80;99.90
23116;DHT22;11727;52.134;5.052;2024-01-25T14:55:12;8.80;99.90
23116;DHT22;11727;52.134;5.052;2024-01-25T14:57:38;8.80;99.90
23116;DHT22;11727;52.134;5.052;2024-01-25T15:00:04;8.80;99.90
23116;DHT22;11727;52.134;5.052;2024-01-25T15:02:32;8.80;99.90
23116;DHT22;11727;52.134;5.052;2024-01-25T15:04:58;8.80;99.90
23116;DHT22;11727;52.134;5.052;2024-01-25T15:07:24;8.80;99.90
23116;DHT22;11727;52.134;5.052;2024-01-25T15:09:49;8.90;99.90
23116;DHT22;11727;52.134;5.052;2024-01-25T15:12:15;8.80;99.90
23116;DHT22;11727;52.134;5.052;2024-01-25T15:14:41;8.80;99.90
23116;DHT22;11727;52.134;5.052;2024-01-25T15:17:07;8.90;99.90
23116;DHT22;11727;52.134;5.052;2024-01-25T15:19:32;8.90;99.90
23116;DHT22;11727;52.134;5.052;2024-01-25T15:21:58;8.90;99.90
23116;DHT22;11727;52.134;5.052;2024-01-25T15:24:23;8.90;99.90
23116;DHT22;11727;52.134;5.052;2024-01-25T15:26:49;8.90;99.90
23116;DHT22;11727;52.134;5.052;2024-01-25T15:29:14;8.90;99.90
23116;DHT22;11727;52.134;5.052;2024-01-25T15:31:40;8.80;99.90
23116;DHT22;11727;52.134;5.052;2024-01-25T15:34:06;8.80;99.90
23116;DHT22;11727;52.134;5.052;2024-01-25T15:36:32;8.80;99.90
23116;DHT22;11727;52.134;5.052;2024-01-25T15:38:59;8.70;99.90